Detroit Lakes, MN (56501)

5:42 PM CDT on April 26, 2017 (GMT -0500)
Detroit Lakes | | Change Station
Active Advisory: Winter Weather Advisory

Elev 1358 ft 46.81 °N, 95.82 °W | Updated 14 seconds ago

Light Snow
Light Snow
30.0 °F
Feels Like 30 °F
N
0.0
Wind Variable Wind from North
Gusts 0.0 mph

Today
High -- | Low -- °F
--% Chance of Precip.
Yesterday
High -- | Low -- °F
Precip. -- in
Pressure 29.66 in
Visibility 4.0 miles
Clouds Scattered Clouds 300 ft
Overcast 900 ft
Windchill 30 °F
Dew Point 30 °F
Humidity 99%
Rainfall 0.02 in
Snow Depth Not available.
6:15 AM 8:27 PM
New Moon, 0% visible
METAR KDTL 262234Z AUTO 36004KT 4SM -SN SCT003 OVC009 M01/M02 A2966 RMK AO2
Pressure 29.66 in
Visibility 4.0 miles
Clouds Scattered Clouds 300 ft
Overcast 900 ft
Windchill 30 °F
Dew Point 30 °F
Humidity 99%
Rainfall 0.02 in
Snow Depth Not available.
6:15 AM 8:27 PM
New Moon, 0% visible
METAR KDTL 262234Z AUTO 36004KT 4SM -SN SCT003 OVC009 M01/M02 A2966 RMK AO2

Get Your Daily Forecast Email!

Thanks for signing up!

Be on the lookout for a verification email in your inbox.

You'll start receiving severe weather alerts in your inbox..

×

10-Day Weather Forecast

Almanac

Astronomy

Apr. 26, 2017 Rise Set
Actual Time
Civil Twilight
Nautical Twilight
Astronomical Twilight
Moon
Length of Visible Light
Length of Day
Tomorrow will be .
, % of the Moon is Illuminated

Today's Extremes

State Highs State Lows

Community

WunderPhotos

WunderBlog® & News

Nearby

Air Quality

  Air Quality AQ Index Pollutant
Not available.

Snow Depth

Station Depth Elevation

Earthquake Activity

City Distance Mag. Time & Date
Minimum magnitude displayed is 2.5.

Coastal Water Temperatures

Place Temperature

Stations

Nearby Weather Stations

Station Location Temp. Windchill Dew Point Humidity Wind Precip. Elev Updated Type
                   

Watches & Warnings

Winter Weather Advisory
Issued: 5:31 PM CDT Apr. 26, 2017 – National Weather Service

... Winter Weather Advisory remains in effect until 7 PM CDT this
evening...

* timing... expect a wintry mix to continue, diminishing around 7
PM.

* Snow and ice accumulations... additional snow accumulations of
up to 1 inch and ice accumulations of a glaze are expected.

* Winds / visibilities... look for reduced visibilities at times.

* Impacts... plan on slippery Road conditions... including during
the evening commute.

Precautionary/preparedness actions...

A Winter Weather Advisory means that periods of snow, sleet or
freezing rain will cause travel difficulties. Be prepared for
slippery roads and limited visibilities, and use caution while
driving. The latest Road conditions for the state you are calling
from can be obtained by calling 5 1 1.



Knutsvig